Time;durP1;ratioP1;P1;durP2;ratioP2;P2;SDS_P1;SDS_P2;PMS_P1;PMS_P2;Temp;Humidity;BMP_temperature;BMP_pressure;BME280_temperature;BME280_humidity;BME280_pressure;Samples;Min_cycle;Max_cycle;Signal;HPM_P1;HPM_P2
2022/10/05 00:01:22;;;;;;;5.55;4.15;;;16.70;72.90;;;;;;5010147;28;20075;-67
2022/10/05 00:03:48;;;;;;;5.43;3.78;;;16.70;72.90;;;;;;5008976;28;20021;-68
2022/10/05 00:06:14;;;;;;;5.65;3.90;;;16.70;72.90;;;;;;5010859;28;20021;-68
2022/10/05 00:08:39;;;;;;;7.60;4.63;;;16.70;72.90;;;;;;5011091;28;20026;-67
2022/10/05 00:11:11;;;;;;;6.57;4.65;;;16.70;73.00;;;;;;5012512;28;20085;-67
2022/10/05 00:13:38;;;;;;;7.20;4.38;;;16.70;73.10;;;;;;5011200;28;20093;-67
2022/10/05 00:16:10;;;;;;;8.10;4.18;;;16.60;73.10;;;;;;5012318;28;20022;-67
2022/10/05 00:18:35;;;;;;;6.05;3.97;;;16.60;73.10;;;;;;5008433;28;20488;-67
2022/10/05 00:21:01;;;;;;;5.75;4.10;;;16.60;73.10;;;;;;5012066;28;20032;-67
2022/10/05 00:23:30;;;;;;;6.32;4.32;;;16.70;73.20;;;;;;5012217;28;20677;-67
2022/10/05 00:26:20;;;;;;;7.95;4.35;;;16.60;73.20;;;;;;5011242;28;20407;-67
2022/10/05 00:28:46;;;;;;;5.03;3.72;;;16.60;73.30;;;;;;5008281;28;20033;-67
2022/10/05 00:31:21;;;;;;;5.10;3.53;;;16.60;73.30;;;;;;5010996;28;20026;-67
2022/10/05 00:33:47;;;;;;;4.70;3.40;;;16.60;73.30;;;;;;5007478;28;20034;-67
2022/10/05 00:36:13;;;;;;;4.72;3.53;;;16.60;73.20;;;;;;5008373;28;20025;-67
2022/10/05 00:38:40;;;;;;;5.22;3.55;;;16.60;73.20;;;;;;5011889;28;20026;-67
2022/10/05 00:41:08;;;;;;;4.50;3.50;;;16.70;73.30;;;;;;5012376;28;20827;-67
2022/10/05 00:43:51;;;;;;;6.57;3.42;;;16.70;73.30;;;;;;5011518;28;20068;-68
2022/10/05 00:46:50;;;;;;;4.57;3.63;;;16.70;73.30;;;;;;5013101;28;20557;-67
2022/10/05 00:49:47;;;;;;;5.47;4.07;;;16.70;73.30;;;;;;5012204;28;20022;-67
2022/10/05 00:52:36;;;;;;;5.22;3.65;;;16.70;73.40;;;;;;5011388;28;20420;-67
2022/10/05 00:55:13;;;;;;;5.82;4.20;;;16.60;73.40;;;;;;5009474;28;20072;-66
2022/10/05 00:57:44;;;;;;;7.22;4.63;;;16.70;73.50;;;;;;5009933;28;20018;-66
2022/10/05 01:00:18;;;;;;;5.90;3.63;;;16.60;73.50;;;;;;5006768;28;20029;-66
2022/10/05 01:03:06;;;;;;;8.07;5.13;;;16.60;73.60;;;;;;5010846;28;20030;-66
2022/10/05 01:05:35;;;;;;;6.03;4.00;;;16.60;73.90;;;;;;5006736;28;20036;-67
2022/10/05 01:08:10;;;;;;;6.40;4.32;;;16.50;73.90;;;;;;5009021;28;20036;-67
2022/10/05 01:10:38;;;;;;;9.30;4.68;;;16.60;74.00;;;;;;5007371;28;20057;-67
2022/10/05 01:13:14;;;;;;;6.28;4.00;;;16.50;74.00;;;;;;5010200;28;20018;-67
2022/10/05 01:15:56;;;;;;;4.68;3.58;;;16.50;74.00;;;;;;5010769;28;20017;-66
2022/10/05 01:18:42;;;;;;;6.03;4.07;;;16.50;74.10;;;;;;5007138;28;20088;-66
2022/10/05 01:21:18;;;;;;;6.47;4.53;;;16.50;74.10;;;;;;5009981;28;20059;-67
2022/10/05 01:24:01;;;;;;;7.28;5.30;;;16.50;74.20;;;;;;5009951;28;20038;-67
2022/10/05 01:26:32;;;;;;;7.43;4.85;;;16.50;74.30;;;;;;5008704;28;20503;-67
2022/10/05 01:29:11;;;;;;;10.65;6.75;;;16.50;74.40;;;;;;5009198;28;20531;-67
2022/10/05 01:31:56;;;;;;;6.63;5.00;;;16.50;74.60;;;;;;5007924;28;20101;-66
2022/10/05 01:34:34;;;;;;;5.85;4.50;;;16.40;74.70;;;;;;5011451;28;20045;-67
2022/10/05 01:37:28;;;;;;;5.15;3.97;;;16.40;74.80;;;;;;5007956;28;20076;-67
2022/10/05 01:40:17;;;;;;;5.63;3.83;;;16.40;74.80;;;;;;5007527;28;20543;-67
2022/10/05 01:43:02;;;;;;;8.63;4.90;;;16.40;74.80;;;;;;5004732;28;20057;-67
2022/10/05 01:45:42;;;;;;;6.75;4.30;;;16.40;74.90;;;;;;5010323;28;20105;-67
2022/10/05 01:48:19;;;;;;;7.18;5.43;;;16.40;75.00;;;;;;5006208;28;20447;-67
2022/10/05 01:51:12;;;;;;;7.82;4.57;;;16.40;75.20;;;;;;5009412;28;20053;-67
2022/10/05 01:54:09;;;;;;;8.15;5.57;;;16.40;75.30;;;;;;5006496;28;20026;-67
2022/10/05 01:56:48;;;;;;;7.72;5.82;;;16.40;75.30;;;;;;5007630;28;20419;-67
2022/10/05 01:59:28;;;;;;;5.88;4.93;;;16.30;75.50;;;;;;5007185;28;20030;-67
2022/10/05 02:02:03;;;;;;;7.90;5.40;;;16.30;75.50;;;;;;5007071;28;20026;-66
2022/10/05 02:04:52;;;;;;;6.22;4.55;;;16.30;75.70;;;;;;5008975;28;20049;-66
2022/10/05 02:07:23;;;;;;;7.75;4.57;;;16.30;75.60;;;;;;5008789;28;20034;-66
2022/10/05 02:10:21;;;;;;;6.93;4.90;;;16.30;75.70;;;;;;5008648;28;20052;-66
2022/10/05 02:12:50;;;;;;;6.75;4.78;;;16.30;75.80;;;;;;5003976;28;20030;-67
2022/10/05 02:15:24;;;;;;;6.10;4.65;;;16.20;76.00;;;;;;5004372;28;20030;-67
2022/10/05 02:17:56;;;;;;;6.00;4.70;;;16.20;76.00;;;;;;5006602;28;20041;-67
2022/10/05 02:20:26;;;;;;;9.07;5.85;;;16.30;76.10;;;;;;5007606;28;20099;-67
2022/10/05 02:22:56;;;;;;;8.07;6.45;;;16.20;76.20;;;;;;5009525;28;20445;-66
2022/10/05 02:25:28;;;;;;;9.00;6.10;;;16.20;76.50;;;;;;5005440;28;20034;-66
2022/10/05 02:28:00;;;;;;;11.27;7.55;;;16.20;76.60;;;;;;5005220;28;20049;-66
2022/10/05 02:30:29;;;;;;;9.43;6.72;;;16.10;76.80;;;;;;5005306;28;20108;-66
2022/10/05 02:33:00;;;;;;;10.18;7.80;;;16.10;76.90;;;;;;5010963;28;20022;-66
2022/10/05 02:35:26;;;;;;;8.70;6.28;;;16.00;77.10;;;;;;5004570;28;20077;-66
2022/10/05 02:38:25;;;;;;;7.63;5.70;;;16.00;77.20;;;;;;5005743;28;20446;-66
2022/10/05 02:41:20;;;;;;;8.15;5.70;;;16.00;77.30;;;;;;5005967;28;20077;-66
2022/10/05 02:44:00;;;;;;;8.00;5.50;;;16.00;77.10;;;;;;5007551;28;20018;-66
2022/10/05 02:46:40;;;;;;;9.18;6.43;;;16.00;77.10;;;;;;5006840;28;20038;-66
2022/10/05 02:49:38;;;;;;;11.23;6.78;;;16.00;77.30;;;;;;5008738;28;20104;-66
2022/10/05 02:52:28;;;;;;;7.65;6.38;;;16.00;77.30;;;;;;5007016;28;20033;-66
2022/10/05 02:55:07;;;;;;;7.90;5.70;;;16.00;77.50;;;;;;5006439;28;20092;-66
2022/10/05 02:57:41;;;;;;;7.10;5.93;;;15.90;77.50;;;;;;5008630;28;20085;-65
2022/10/05 03:00:13;;;;;;;8.57;6.22;;;15.90;77.60;;;;;;5003949;28;20029;-66
2022/10/05 03:02:53;;;;;;;7.53;6.32;;;15.90;77.60;;;;;;5008768;28;20823;-65
2022/10/05 03:05:32;;;;;;;10.52;7.80;;;15.90;77.70;;;;;;5006749;28;20030;-66
2022/10/05 03:08:04;;;;;;;9.82;7.63;;;15.90;77.90;;;;;;5006253;28;20026;-66
2022/10/05 03:10:38;;;;;;;7.75;5.82;;;15.90;78.00;;;;;;5007160;28;20091;-67
2022/10/05 03:13:23;;;;;;;8.68;6.15;;;15.90;78.00;;;;;;5004623;28;20017;-66
2022/10/05 03:16:06;;;;;;;8.55;5.60;;;15.90;77.90;;;;;;5006393;28;20041;-66
2022/10/05 03:18:56;;;;;;;7.10;5.72;;;15.90;77.90;;;;;;5007808;28;20073;-66
2022/10/05 03:21:48;;;;;;;8.70;6.90;;;15.90;77.80;;;;;;5012684;28;20459;-65
2022/10/05 03:24:33;;;;;;;;;;;15.90;78.00;;;;;;5014299;28;20092;-66
2022/10/05 03:27:27;;;;;;;10.35;6.82;;;15.90;78.00;;;;;;5011662;28;19916;-66
2022/10/05 03:30:05;;;;;;;8.98;6.43;;;15.80;78.10;;;;;;5015256;28;20034;-65
2022/10/05 03:33:00;;;;;;;8.35;6.72;;;15.90;78.10;;;;;;5010717;28;20034;-65
2022/10/05 03:35:38;;;;;;;7.72;5.82;;;15.90;78.20;;;;;;5010591;28;20033;-65
2022/10/05 03:38:16;;;;;;;10.57;8.50;;;15.90;78.00;;;;;;5011449;28;20072;-66
2022/10/05 03:40:56;;;;;;;9.55;7.93;;;15.90;78.20;;;;;;5009900;28;20615;-66
2022/10/05 03:43:56;;;;;;;8.05;6.40;;;15.90;78.40;;;;;;5009560;28;20034;-66
2022/10/05 03:46:37;;;;;;;8.73;6.28;;;15.80;78.40;;;;;;5007573;28;20100;-66
2022/10/05 03:49:29;;;;;;;11.38;8.13;;;15.90;78.30;;;;;;5010590;28;20069;-66
2022/10/05 03:52:07;;;;;;;11.10;6.65;;;15.90;78.40;;;;;;5010438;28;20026;-65
2022/10/05 03:54:38;;;;;;;10.30;7.40;;;15.80;79.10;;;;;;5012023;28;20027;-65
2022/10/05 03:57:14;;;;;;;11.05;8.05;;;15.80;78.60;;;;;;5024863;28;20532;-66
2022/10/05 04:00:01;;;;;;;10.95;7.60;;;15.80;78.70;;;;;;5012070;28;20080;-67
2022/10/05 04:02:35;;;;;;;9.82;7.18;;;15.80;78.70;;;;;;5009401;28;20499;-66
2022/10/05 04:05:09;;;;;;;8.88;6.22;;;15.80;78.70;;;;;;5009184;28;20086;-66
2022/10/05 04:07:42;;;;;;;9.60;7.38;;;15.80;78.50;;;;;;5009167;28;20384;-67
2022/10/05 04:10:23;;;;;;;8.90;5.90;;;15.90;78.50;;;;;;5012512;28;20079;-67
2022/10/05 04:13:23;;;;;;;8.25;6.28;;;15.90;78.50;;;;;;5008839;28;20025;-67
2022/10/05 04:15:56;;;;;;;7.13;5.18;;;15.90;78.40;;;;;;5005851;28;20030;-66
2022/10/05 04:18:24;;;;;;;7.43;5.63;;;15.90;78.30;;;;;;5005512;28;20160;-66
2022/10/05 04:20:56;;;;;;;8.80;7.00;;;15.90;78.20;;;;;;5008044;28;20053;-67
2022/10/05 04:23:33;;;;;;;10.57;6.38;;;15.90;78.20;;;;;;5026731;28;20048;-66
2022/10/05 04:26:06;;;;;;;6.75;5.47;;;15.90;78.20;;;;;;5008513;28;20023;-66
2022/10/05 04:28:42;;;;;;;7.57;5.43;;;15.90;78.20;;;;;;5007938;28;20030;-67
2022/10/05 04:31:12;;;;;;;9.55;7.50;;;16.00;78.20;;;;;;5008985;28;20030;-66
2022/10/05 04:33:38;;;;;;;8.50;6.10;;;16.00;78.10;;;;;;5009438;28;20014;-66
2022/10/05 04:36:17;;;;;;;8.32;6.55;;;16.00;78.10;;;;;;5010473;28;20040;-66
2022/10/05 04:38:51;;;;;;;7.90;5.80;;;16.00;78.10;;;;;;5008563;28;20025;-66
2022/10/05 04:42:11;;;;;;;8.65;6.20;;;16.00;78.10;;;;;;5009760;28;20552;-67
2022/10/05 04:44:37;;;;;;;8.52;6.13;;;16.00;78.00;;;;;;5001510;28;20121;-67
2022/10/05 04:47:13;;;;;;;9.32;6.30;;;16.00;78.00;;;;;;5008771;28;20445;-66
2022/10/05 04:49:54;;;;;;;6.88;5.25;;;16.00;78.10;;;;;;5004918;28;20496;-66
2022/10/05 04:52:47;;;;;;;10.73;8.00;;;16.00;78.00;;;;;;5008372;28;20139;-67
2022/10/05 04:55:40;;;;;;;8.55;6.40;;;15.90;78.10;;;;;;5007997;28;21257;-66
2022/10/05 04:58:31;;;;;;;8.90;6.70;;;15.90;78.20;;;;;;5004057;28;20102;-66
2022/10/05 05:01:23;;;;;;;8.13;6.32;;;15.90;78.40;;;;;;5009868;28;20493;-65
2022/10/05 05:03:57;;;;;;;7.60;6.07;;;15.90;78.30;;;;;;5008813;28;20038;-66
2022/10/05 05:06:48;;;;;;;9.82;6.95;;;15.90;78.20;;;;;;5007841;28;20036;-67
2022/10/05 05:09:32;;;;;;;8.60;6.38;;;15.90;78.30;;;;;;5006479;28;20145;-67
2022/10/05 05:12:15;;;;;;;7.38;6.20;;;15.90;78.30;;;;;;5010620;28;20081;-67
2022/10/05 05:15:26;;;;;;;12.85;8.30;;;15.90;78.40;;;;;;5007975;28;20018;-67
2022/10/05 05:18:00;;;;;;;10.07;6.88;;;15.80;78.40;;;;;;5001378;28;20373;-67
2022/10/05 05:20:37;;;;;;;7.25;6.05;;;15.80;78.50;;;;;;5008525;28;20030;-68
2022/10/05 05:23:13;;;;;;;7.22;5.22;;;15.80;78.50;;;;;;5006415;28;20088;-67
2022/10/05 05:25:46;;;;;;;7.60;5.55;;;15.90;78.50;;;;;;5009421;28;20021;-67
2022/10/05 05:28:25;;;;;;;7.20;6.07;;;15.90;78.40;;;;;;5009971;28;20436;-67
2022/10/05 05:31:09;;;;;;;9.13;6.90;;;15.90;78.40;;;;;;5007944;28;20026;-67
2022/10/05 05:34:00;;;;;;;6.82;5.70;;;15.80;78.40;;;;;;5009138;28;20582;-67
2022/10/05 05:36:44;;;;;;;9.23;6.00;;;15.80;78.40;;;;;;5006370;28;20049;-67
2022/10/05 05:39:22;;;;;;;6.88;6.00;;;15.80;78.40;;;;;;5008216;28;20022;-68
2022/10/05 05:42:16;;;;;;;8.00;5.90;;;15.80;78.50;;;;;;5004415;28;20025;-68
2022/10/05 05:44:50;;;;;;;8.18;6.05;;;15.80;78.50;;;;;;4996279;28;20050;-66
2022/10/05 05:47:37;;;;;;;9.00;7.05;;;15.80;78.40;;;;;;5007477;28;20044;-66
2022/10/05 05:50:21;;;;;;;10.32;6.65;;;15.80;78.40;;;;;;5006925;28;20037;-65
2022/10/05 05:53:02;;;;;;;8.60;6.72;;;15.80;78.40;;;;;;5009175;28;20030;-66
2022/10/05 05:55:50;;;;;;;7.03;5.53;;;15.80;78.30;;;;;;5007409;28;20022;-66
2022/10/05 05:58:24;;;;;;;6.85;5.32;;;15.80;78.30;;;;;;5006221;28;20026;-67
2022/10/05 06:00:52;;;;;;;6.80;4.90;;;15.80;78.30;;;;;;5009534;28;20060;-68
2022/10/05 06:03:33;;;;;;;8.63;6.55;;;15.80;78.20;;;;;;5006197;28;20034;-66
2022/10/05 06:06:03;;;;;;;9.80;7.38;;;15.80;78.10;;;;;;5009549;28;20026;-66
2022/10/05 06:08:38;;;;;;;9.25;6.88;;;15.80;78.10;;;;;;5009785;28;20411;-67
2022/10/05 06:11:03;;;;;;;9.60;7.50;;;15.80;78.20;;;;;;5007677;28;20165;-67
2022/10/05 06:13:34;;;;;;;6.63;5.55;;;15.80;78.20;;;;;;5007950;28;20101;-67
2022/10/05 06:16:22;;;;;;;8.88;5.95;;;15.80;78.30;;;;;;5009396;28;20060;-67
2022/10/05 06:18:54;;;;;;;5.93;4.97;;;15.80;78.30;;;;;;5006150;28;20554;-66
2022/10/05 06:21:31;;;;;;;6.72;5.60;;;15.70;78.10;;;;;;5008668;28;20125;-67
2022/10/05 06:24:14;;;;;;;8.77;5.00;;;15.80;78.20;;;;;;5006133;28;20036;-67
2022/10/05 06:27:15;;;;;;;5.90;4.70;;;15.80;78.10;;;;;;5003959;28;20025;-67
2022/10/05 06:29:58;;;;;;;6.78;5.50;;;15.80;78.00;;;;;;5004664;28;20037;-66
2022/10/05 06:33:05;;;;;;;10.85;6.70;;;15.80;77.90;;;;;;5008392;28;20403;-67
2022/10/05 06:36:08;;;;;;;8.18;5.30;;;15.80;77.80;;;;;;5007921;28;20045;-66
2022/10/05 06:38:57;;;;;;;5.75;4.60;;;15.80;77.80;;;;;;5007862;28;20017;-65
2022/10/05 06:41:38;;;;;;;5.93;4.75;;;15.80;77.70;;;;;;5006622;28;20030;-65
2022/10/05 06:44:21;;;;;;;5.82;4.30;;;15.80;77.70;;;;;;5008463;28;20357;-66
2022/10/05 06:47:00;;;;;;;5.32;4.03;;;15.90;77.60;;;;;;5006904;28;20052;-65
2022/10/05 06:49:35;;;;;;;5.53;4.15;;;15.90;77.50;;;;;;5009139;28;20101;-66
2022/10/05 06:52:33;;;;;;;7.78;4.50;;;15.90;77.40;;;;;;5008312;28;20025;-65
2022/10/05 06:55:17;;;;;;;7.30;5.72;;;15.90;77.30;;;;;;5006906;28;20388;-65
2022/10/05 06:58:16;;;;;;;5.72;4.38;;;15.80;77.20;;;;;;5007179;28;20391;-66
2022/10/05 07:00:51;;;;;;;5.97;4.07;;;15.80;77.40;;;;;;5005019;28;20060;-67
2022/10/05 07:03:41;;;;;;;7.47;4.47;;;15.90;77.40;;;;;;5007072;28;20018;-67
2022/10/05 07:06:17;;;;;;;5.60;4.40;;;15.90;77.30;;;;;;5008240;28;20502;-67
2022/10/05 07:08:56;;;;;;;4.93;3.70;;;16.00;77.20;;;;;;5006701;28;20029;-68
2022/10/05 07:12:01;;;;;;;6.78;4.57;;;16.00;77.20;;;;;;4996447;28;20057;-67
2022/10/05 07:14:47;;;;;;;4.80;3.75;;;16.00;77.10;;;;;;5005889;28;20017;-67
2022/10/05 07:17:12;;;;;;;5.82;4.25;;;16.00;77.00;;;;;;5005376;28;20037;-67
2022/10/05 07:19:51;;;;;;;7.00;4.43;;;16.00;76.90;;;;;;5006763;28;20021;-67
2022/10/05 07:22:50;;;;;;;5.85;4.30;;;16.00;76.90;;;;;;5007100;28;20026;-68
2022/10/05 07:25:22;;;;;;;6.38;4.13;;;16.00;76.80;;;;;;5008180;28;20149;-67
2022/10/05 07:27:55;;;;;;;7.70;4.50;;;16.00;76.80;;;;;;5005759;28;20029;-67
2022/10/05 07:30:21;;;;;;;4.63;3.72;;;16.10;76.90;;;;;;5007088;28;20026;-68
2022/10/05 07:33:10;;;;;;;7.65;4.47;;;16.10;76.80;;;;;;5006460;28;20033;-67
2022/10/05 07:38:56;;;;;;;7.85;5.00;;;16.10;76.60;;;;;;5004761;28;20040;-68
2022/10/05 07:41:39;;;;;;;5.53;4.20;;;16.10;76.70;;;;;;5007637;28;20022;-67
2022/10/05 07:44:13;;;;;;;5.07;4.13;;;16.10;76.80;;;;;;5002705;28;20037;-67
2022/10/05 07:47:10;;;;;;;6.93;4.72;;;16.10;76.80;;;;;;5006571;28;20099;-68
2022/10/05 07:49:46;;;;;;;5.22;4.20;;;16.10;76.70;;;;;;4994472;28;20030;-68
2022/10/05 07:52:23;;;;;;;3.80;3.08;;;16.20;76.60;;;;;;5008412;28;20037;-67
2022/10/05 07:54:58;;;;;;;8.40;4.20;;;16.20;76.50;;;;;;5009671;28;20022;-68
2022/10/05 07:57:29;;;;;;;5.13;4.20;;;16.30;76.40;;;;;;4998735;28;20106;-67
2022/10/05 08:00:03;;;;;;;7.38;3.90;;;16.30;76.20;;;;;;5004594;28;20026;-68
2022/10/05 08:02:41;;;;;;;7.53;5.43;;;16.30;76.20;;;;;;5005097;28;20478;-67
2022/10/05 08:05:27;;;;;;;5.30;4.40;;;16.30;76.20;;;;;;5009526;28;20021;-68
2022/10/05 08:08:34;;;;;;;5.13;3.47;;;16.30;76.20;;;;;;5001627;28;20038;-68
2022/10/05 08:11:29;;;;;;;4.82;3.42;;;16.30;76.10;;;;;;5011626;28;20026;-68
2022/10/05 08:14:15;;;;;;;4.35;3.70;;;16.30;76.00;;;;;;4998454;28;20037;-68
2022/10/05 08:16:45;;;;;;;5.50;3.90;;;16.40;76.00;;;;;;5008823;28;20045;-67
2022/10/05 08:19:20;;;;;;;6.90;4.10;;;16.40;75.80;;;;;;5011129;28;20026;-68
2022/10/05 08:22:08;;;;;;;4.57;3.58;;;16.40;75.70;;;;;;5010470;28;20017;-67
2022/10/05 08:24:58;;;;;;;5.75;4.10;;;16.40;75.70;;;;;;5001300;28;20084;-67
2022/10/05 08:27:35;;;;;;;6.82;4.10;;;16.40;75.50;;;;;;5010865;28;20445;-68
2022/10/05 08:30:05;;;;;;;4.70;3.75;;;16.50;75.40;;;;;;5000486;28;20062;-68
2022/10/05 08:32:54;;;;;;;4.20;3.50;;;16.50;75.20;;;;;;5000957;28;20080;-68
2022/10/05 08:35:20;;;;;;;5.93;3.00;;;16.50;75.00;;;;;;4993053;28;20030;-68
2022/10/05 08:37:47;;;;;;;3.53;2.70;;;16.60;74.90;;;;;;4996223;28;20416;-68
2022/10/05 08:40:28;;;;;;;3.05;2.30;;;16.60;74.60;;;;;;5002911;28;20033;-68
2022/10/05 08:43:21;;;;;;;5.13;3.30;;;16.70;74.50;;;;;;5011396;28;20025;-68
2022/10/05 08:46:05;;;;;;;3.38;2.83;;;16.70;74.10;;;;;;5002549;28;20045;-68
2022/10/05 08:48:40;;;;;;;3.47;2.90;;;16.80;74.00;;;;;;5011483;28;20541;-68
2022/10/05 08:51:42;;;;;;;3.50;2.70;;;16.80;73.90;;;;;;5006162;28;20488;-68
2022/10/05 08:54:29;;;;;;;5.35;3.13;;;16.90;73.90;;;;;;4998851;28;20033;-68
2022/10/05 08:57:25;;;;;;;4.32;2.83;;;17.00;73.70;;;;;;5004589;28;20093;-68
2022/10/05 09:00:09;;;;;;;5.63;3.35;;;17.00;73.60;;;;;;5002355;28;20667;-68
2022/10/05 09:02:43;;;;;;;3.50;2.47;;;17.00;73.40;;;;;;5011570;28;20029;-68
2022/10/05 09:05:39;;;;;;;4.03;2.83;;;17.10;73.50;;;;;;5008153;28;20092;-68
2022/10/05 09:08:13;;;;;;;3.53;3.10;;;17.10;73.30;;;;;;5008497;28;20025;-68
2022/10/05 09:10:39;;;;;;;4.68;3.22;;;17.20;73.20;;;;;;5011691;28;20030;-68
2022/10/05 09:13:32;;;;;;;4.20;3.28;;;17.20;73.10;;;;;;5005474;28;20025;-68
2022/10/05 09:16:16;;;;;;;5.35;3.30;;;17.30;73.20;;;;;;5007261;28;20026;-68
2022/10/05 09:19:04;;;;;;;4.65;2.78;;;17.30;73.00;;;;;;5006420;28;20028;-68
2022/10/05 09:21:33;;;;;;;6.60;3.63;;;17.40;73.00;;;;;;4999329;28;20033;-68
2022/10/05 09:24:20;;;;;;;5.00;3.50;;;17.40;72.70;;;;;;5008367;28;20030;-68
2022/10/05 09:27:02;;;;;;;6.60;3.28;;;17.40;72.90;;;;;;5009961;28;20026;-68
2022/10/05 09:30:22;;;;;;;5.28;3.50;;;17.60;72.70;;;;;;5004189;28;20053;-67
2022/10/05 09:33:09;;;;;;;3.97;3.00;;;17.70;72.50;;;;;;5015508;28;20041;-68
2022/10/05 09:35:53;;;;;;;4.15;3.00;;;17.70;72.40;;;;;;5002320;28;20051;-68
2022/10/05 09:38:37;;;;;;;5.40;2.90;;;17.80;72.20;;;;;;5011488;28;20022;-68
2022/10/05 09:41:27;;;;;;;3.92;2.90;;;17.90;72.20;;;;;;5002743;28;20694;-68
2022/10/05 09:44:35;;;;;;;5.00;3.30;;;18.00;72.10;;;;;;5001107;28;20022;-68
2022/10/05 09:47:29;;;;;;;4.55;3.20;;;17.90;71.60;;;;;;5007159;28;20030;-68
2022/10/05 09:50:18;;;;;;;4.68;3.70;;;17.90;71.80;;;;;;4996052;28;20400;-68
2022/10/05 09:53:16;;;;;;;4.38;2.60;;;17.90;71.60;;;;;;5006228;28;20548;-68
2022/10/05 09:56:00;;;;;;;4.68;2.90;;;18.00;71.80;;;;;;5003361;28;20092;-68
2022/10/05 09:58:36;;;;;;;4.63;3.33;;;18.00;71.60;;;;;;5004309;28;20097;-68
2022/10/05 10:01:20;;;;;;;6.10;3.92;;;18.10;71.30;;;;;;4994557;28;20033;-68
2022/10/05 10:03:59;;;;;;;3.67;2.60;;;18.10;71.00;;;;;;5010371;28;20341;-69
2022/10/05 10:06:54;;;;;;;3.25;2.40;;;18.10;71.20;;;;;;5008785;28;20030;-69
2022/10/05 10:09:51;;;;;;;3.38;2.65;;;18.30;71.20;;;;;;4993163;28;20129;-68
2022/10/05 10:12:30;;;;;;;2.95;2.58;;;18.30;70.70;;;;;;4999064;28;20088;-68
2022/10/05 10:15:43;;;;;;;4.78;2.80;;;18.50;70.70;;;;;;5007493;28;20133;-69
2022/10/05 10:18:36;;;;;;;4.20;2.75;;;18.60;70.40;;;;;;5001062;28;20034;-69
2022/10/05 10:21:29;;;;;;;3.85;3.03;;;18.60;70.00;;;;;;5001239;28;20033;-68
2022/10/05 10:24:05;;;;;;;3.88;2.60;;;18.60;69.90;;;;;;5008129;28;20025;-68
2022/10/05 10:27:15;;;;;;;4.47;2.90;;;18.80;69.90;;;;;;5008079;28;20053;-69
2022/10/05 10:30:08;;;;;;;4.85;3.25;;;18.90;69.50;;;;;;5003686;28;20429;-69
2022/10/05 10:32:49;;;;;;;5.72;3.40;;;18.90;69.00;;;;;;5009109;28;20014;-68
2022/10/05 10:35:31;;;;;;;4.70;3.30;;;18.90;68.80;;;;;;4998767;28;20027;-69
2022/10/05 10:38:24;;;;;;;3.55;2.63;;;18.90;68.70;;;;;;5004334;28;20056;-67
2022/10/05 10:40:55;;;;;;;3.05;2.63;;;19.00;68.80;;;;;;5005986;28;20353;-67
2022/10/05 10:43:21;;;;;;;5.22;2.70;;;19.00;68.50;;;;;;5009635;28;20408;-69
2022/10/05 10:46:10;;;;;;;3.67;2.50;;;19.00;68.30;;;;;;5009969;28;20026;-68
2022/10/05 10:48:49;;;;;;;3.90;2.30;;;19.00;68.60;;;;;;5003784;28;20029;-68
2022/10/05 10:51:24;;;;;;;3.35;2.72;;;19.10;68.30;;;;;;4996813;28;20022;-69
2022/10/05 10:54:07;;;;;;;5.13;2.60;;;19.00;68.20;;;;;;5003402;28;20723;-69
2022/10/05 10:57:10;;;;;;;4.53;2.90;;;19.10;68.20;;;;;;5006805;28;20017;-69
2022/10/05 10:59:57;;;;;;;5.22;3.05;;;19.00;68.50;;;;;;5006642;28;20113;-68
2022/10/05 11:02:38;;;;;;;4.18;2.72;;;19.00;67.80;;;;;;5007033;28;20022;-68
2022/10/05 11:05:37;;;;;;;6.75;2.90;;;18.90;67.90;;;;;;5006488;28;20041;-68
2022/10/05 11:08:25;;;;;;;3.38;2.70;;;19.00;68.20;;;;;;5006467;28;20037;-67
2022/10/05 11:11:13;;;;;;;3.30;2.70;;;18.90;68.10;;;;;;5007087;28;20088;-67
2022/10/05 11:14:16;;;;;;;3.05;2.20;;;19.00;68.30;;;;;;5004750;28;20470;-67
2022/10/05 11:17:14;;;;;;;4.22;2.35;;;19.00;68.30;;;;;;5006548;28;20026;-67
2022/10/05 11:19:42;;;;;;;3.47;2.85;;;19.00;68.40;;;;;;5004215;28;20025;-68
2022/10/05 11:22:29;;;;;;;4.97;2.30;;;19.10;67.90;;;;;;5007307;28;20033;-67
2022/10/05 11:25:03;;;;;;;3.38;2.25;;;19.10;67.90;;;;;;5006632;28;20500;-67
2022/10/05 11:27:47;;;;;;;4.63;2.97;;;19.10;67.70;;;;;;5002898;28;20025;-67
2022/10/05 11:30:24;;;;;;;4.70;2.50;;;19.10;67.40;;;;;;5002881;28;20096;-67
2022/10/05 11:33:10;;;;;;;2.95;2.13;;;19.10;67.60;;;;;;5002743;28;20030;-68
2022/10/05 11:35:43;;;;;;;3.13;2.20;;;19.20;67.60;;;;;;5006169;28;20030;-68
2022/10/05 11:39:00;;;;;;;4.93;2.40;;;19.20;67.40;;;;;;5006416;28;20037;-68
2022/10/05 11:41:40;;;;;;;2.90;1.88;;;19.30;67.30;;;;;;5011756;28;20026;-68
2022/10/05 11:44:37;;;;;;;3.22;2.05;;;19.30;67.30;;;;;;5010521;28;20029;-67
2022/10/05 11:47:21;;;;;;;4.38;2.50;;;19.40;67.90;;;;;;5010828;28;20514;-68
2022/10/05 11:50:10;;;;;;;4.03;2.70;;;19.50;67.20;;;;;;5006610;28;20041;-67
2022/10/05 11:52:45;;;;;;;5.93;2.70;;;19.40;66.90;;;;;;5012009;28;20018;-67
2022/10/05 11:55:37;;;;;;;2.92;2.30;;;19.50;66.90;;;;;;5012262;28;20022;-68
2022/10/05 11:58:22;;;;;;;4.28;2.60;;;19.40;66.90;;;;;;5007806;28;20100;-67
2022/10/05 12:01:16;;;;;;;3.65;2.28;;;19.50;67.10;;;;;;5012181;28;20040;-67
2022/10/05 12:04:13;;;;;;;2.50;2.10;;;19.60;67.20;;;;;;5009465;28;20037;-68
2022/10/05 12:06:52;;;;;;;3.05;2.10;;;19.60;67.00;;;;;;5010969;28;20493;-68
2022/10/05 12:09:36;;;;;;;3.67;2.40;;;19.60;66.80;;;;;;5009008;28;20026;-68
2022/10/05 12:12:13;;;;;;;5.32;2.22;;;19.70;66.90;;;;;;5011419;28;20165;-68
2022/10/05 12:15:16;;;;;;;5.00;2.40;;;19.70;66.80;;;;;;5009723;28;20018;-68
2022/10/05 12:17:54;;;;;;;4.25;2.63;;;19.70;66.70;;;;;;5008690;28;20041;-68
2022/10/05 12:20:59;;;;;;;3.15;1.80;;;19.70;66.20;;;;;;5007620;28;20095;-68
2022/10/05 12:23:35;;;;;;;3.95;1.67;;;19.80;66.50;;;;;;4998208;28;20125;-68
2022/10/05 12:26:13;;;;;;;3.53;1.98;;;19.90;66.70;;;;;;5008102;28;20029;-68
2022/10/05 12:28:58;;;;;;;3.83;1.98;;;20.00;67.00;;;;;;5010570;28;20029;-68
2022/10/05 12:31:43;;;;;;;2.10;1.70;;;20.10;66.10;;;;;;5009218;28;20543;-68
2022/10/05 12:34:19;;;;;;;4.53;2.30;;;20.20;65.90;;;;;;5010089;28;20104;-68
2022/10/05 12:36:53;;;;;;;2.83;1.90;;;20.30;65.70;;;;;;5010896;28;20029;-68
2022/10/05 12:39:46;;;;;;;3.17;1.80;;;20.30;65.60;;;;;;5009408;28;20442;-68
2022/10/05 12:42:12;;;;;;;3.80;2.25;;;20.30;65.50;;;;;;5006885;28;20025;-68
2022/10/05 12:44:50;;;;;;;2.97;1.75;;;20.40;65.20;;;;;;5010410;28;20092;-68
2022/10/05 12:47:34;;;;;;;3.20;2.40;;;20.40;65.40;;;;;;5005451;28;20409;-68
2022/10/05 12:50:02;;;;;;;2.67;1.80;;;20.40;64.90;;;;;;5010843;28;20029;-68
2022/10/05 12:52:46;;;;;;;3.38;2.30;;;20.40;65.10;;;;;;5008960;28;20627;-68
2022/10/05 12:55:16;;;;;;;2.83;1.98;;;20.40;64.90;;;;;;5009120;28;20444;-67
2022/10/05 12:58:04;;;;;;;4.07;2.03;;;20.50;65.00;;;;;;5009383;28;20034;-67
2022/10/05 13:00:34;;;;;;;11.02;2.67;;;20.60;64.60;;;;;;5009959;28;20021;-67
2022/10/05 13:03:15;;;;;;;4.07;1.98;;;20.70;64.60;;;;;;5007306;28;20026;-67
2022/10/05 13:06:06;;;;;;;3.30;2.22;;;20.90;64.40;;;;;;5005241;28;20432;-67
2022/10/05 13:09:09;;;;;;;2.80;2.00;;;20.90;63.90;;;;;;5008576;28;20492;-67
2022/10/05 13:11:40;;;;;;;2.95;2.10;;;20.90;64.00;;;;;;5009934;28;20073;-67
2022/10/05 13:14:10;;;;;;;2.87;2.10;;;21.00;63.90;;;;;;5009323;28;20025;-67
2022/10/05 13:16:54;;;;;;;2.80;1.70;;;20.90;63.90;;;;;;5009924;28;20350;-67
2022/10/05 13:19:43;;;;;;;2.28;1.75;;;20.90;64.10;;;;;;5008305;28;20031;-68
2022/10/05 13:22:14;;;;;;;4.70;1.80;;;21.00;64.30;;;;;;5009340;28;20057;-68
2022/10/05 13:24:58;;;;;;;2.95;1.70;;;21.00;64.10;;;;;;5011027;28;20029;-67
2022/10/05 13:27:35;;;;;;;3.28;1.63;;;21.10;64.00;;;;;;5003056;28;20032;-68
2022/10/05 13:30:11;;;;;;;4.55;2.20;;;21.20;64.10;;;;;;5008036;28;20025;-68
2022/10/05 13:32:39;;;;;;;1.75;1.40;;;21.20;63.50;;;;;;5008775;28;20026;-68
2022/10/05 13:35:51;;;;;;;1.80;1.20;;;21.40;63.80;;;;;;5009899;28;20448;-68
2022/10/05 13:38:42;;;;;;;5.18;2.10;;;21.60;63.80;;;;;;5003291;28;20121;-67
2022/10/05 13:41:42;;;;;;;2.03;1.60;;;21.60;63.10;;;;;;5007548;28;20041;-67
2022/10/05 13:44:32;;;;;;;2.17;1.50;;;21.50;63.10;;;;;;5008221;28;20477;-68
2022/10/05 13:47:16;;;;;;;2.38;1.40;;;21.50;63.30;;;;;;5005799;28;20059;-68
2022/10/05 13:49:56;;;;;;;1.95;1.55;;;21.50;63.40;;;;;;5014384;28;20484;-67
2022/10/05 13:53:03;;;;;;;1.60;1.50;;;21.50;63.40;;;;;;5009225;28;20036;-67
2022/10/05 13:55:37;;;;;;;3.83;1.55;;;21.50;63.40;;;;;;5007706;28;20022;-67
2022/10/05 13:58:18;;;;;;;1.58;1.42;;;21.50;63.50;;;;;;5009385;28;20030;-67
2022/10/05 14:00:56;;;;;;;3.53;1.65;;;21.60;63.40;;;;;;5007569;28;20403;-67
2022/10/05 14:03:26;;;;;;;2.42;1.65;;;21.60;63.10;;;;;;5006571;28;20097;-67
2022/10/05 14:05:58;;;;;;;2.05;1.50;;;21.70;63.20;;;;;;5005634;28;20029;-67